createdAt,value
2018-07-20T00:00:07.815Z,1006.23
2018-07-20T00:01:07.718Z,1006.20
2018-07-20T00:02:07.825Z,1006.18
2018-07-20T00:03:07.763Z,1006.14
2018-07-20T00:04:07.935Z,1006.17
2018-07-20T00:05:07.840Z,1006.14
2018-07-20T00:06:07.917Z,1006.13
2018-07-20T00:07:07.914Z,1006.12
2018-07-20T00:08:07.880Z,1006.16
2018-07-20T00:09:07.866Z,1006.11
2018-07-20T00:10:07.862Z,1006.12
2018-07-20T00:11:07.826Z,1006.09
2018-07-20T00:12:07.880Z,1006.12
2018-07-20T00:13:07.921Z,1006.13
2018-07-20T00:14:07.777Z,1006.13
2018-07-20T00:15:07.915Z,1006.16
2018-07-20T00:16:07.903Z,1006.15
2018-07-20T00:17:07.849Z,1006.14
2018-07-20T00:18:07.901Z,1006.12
2018-07-20T00:19:07.785Z,1006.09
2018-07-20T00:20:07.830Z,1006.13
2018-07-20T00:21:07.848Z,1006.09
2018-07-20T00:22:07.796Z,1006.08
2018-07-20T00:23:07.904Z,1006.09
2018-07-20T00:24:07.852Z,1006.11
2018-07-20T00:25:07.935Z,1006.10
2018-07-20T00:26:07.874Z,1006.10
2018-07-20T00:27:07.909Z,1006.10
2018-07-20T00:28:07.879Z,1006.07
2018-07-20T00:29:07.913Z,1006.08
2018-07-20T00:30:07.950Z,1006.10
2018-07-20T00:31:07.947Z,1006.04
2018-07-20T00:32:07.986Z,1006.05
2018-07-20T00:33:07.818Z,1006.10
2018-07-20T00:34:07.916Z,1006.08
2018-07-20T00:35:07.927Z,1006.08
2018-07-20T00:36:07.920Z,1006.09
2018-07-20T00:37:07.854Z,1006.09
2018-07-20T00:38:07.854Z,1006.10
2018-07-20T00:39:07.932Z,1006.08
2018-07-20T00:40:07.860Z,1006.06
2018-07-20T00:41:07.855Z,1006.09
2018-07-20T00:42:07.923Z,1006.05
2018-07-20T00:43:07.861Z,1006.05
2018-07-20T00:44:07.828Z,1006.01
2018-07-20T00:45:07.947Z,1006.04
2018-07-20T00:46:07.851Z,1006.05
2018-07-20T00:47:07.948Z,1006.04
2018-07-20T00:48:07.879Z,1006.02
2018-07-20T00:49:07.957Z,1006.00
2018-07-20T00:50:07.893Z,1006.03
2018-07-20T00:51:07.906Z,1006.04
2018-07-20T00:52:07.951Z,1006.03
2018-07-20T00:53:07.852Z,1006.02
2018-07-20T00:54:07.864Z,1006.04
2018-07-20T00:55:07.865Z,1006.01
2018-07-20T00:56:07.868Z,1006.00
2018-07-20T00:57:07.863Z,1006.04
2018-07-20T00:58:07.934Z,1006.05
2018-07-20T00:59:07.932Z,1006.03
2018-07-20T01:00:07.866Z,1006.01
2018-07-20T01:01:07.875Z,1006.02
2018-07-20T01:02:07.873Z,1006.02
2018-07-20T01:03:07.935Z,1006.02
2018-07-20T01:04:07.977Z,1005.99
2018-07-20T01:05:07.945Z,1006.03
2018-07-20T01:06:07.882Z,1006.00
2018-07-20T01:07:07.938Z,1005.99
2018-07-20T01:08:07.983Z,1006.01
2018-07-20T01:09:07.941Z,1005.98
2018-07-20T01:10:07.865Z,1005.99
2018-07-20T01:11:07.871Z,1005.97
2018-07-20T01:12:07.921Z,1005.97
2018-07-20T01:13:07.884Z,1005.96
2018-07-20T01:14:07.976Z,1005.94
2018-07-20T01:15:07.978Z,1005.94
2018-07-20T01:16:07.985Z,1005.93
2018-07-20T01:17:07.925Z,1005.92
2018-07-20T01:18:07.871Z,1005.95
2018-07-20T01:19:07.989Z,1005.90
2018-07-20T01:20:07.926Z,1005.95
2018-07-20T01:21:07.876Z,1005.92
2018-07-20T01:22:07.871Z,1005.96
2018-07-20T01:23:07.911Z,1005.98
2018-07-20T01:24:07.948Z,1005.97
2018-07-20T01:25:07.994Z,1005.98
2018-07-20T01:26:07.915Z,1005.95
2018-07-20T01:27:07.923Z,1005.95
2018-07-20T01:28:07.860Z,1005.90
2018-07-20T01:29:07.922Z,1005.91
2018-07-20T01:30:07.920Z,1005.91
2018-07-20T01:31:07.928Z,1005.89
2018-07-20T01:32:07.864Z,1005.87
2018-07-20T01:33:07.978Z,1005.83
2018-07-20T01:34:07.994Z,1005.84
2018-07-20T01:35:07.964Z,1005.86
2018-07-20T01:36:07.981Z,1005.85
2018-07-20T01:37:07.902Z,1005.81
2018-07-20T01:38:07.879Z,1005.81
2018-07-20T01:39:07.941Z,1005.78
2018-07-20T01:40:07.934Z,1005.81
2018-07-20T01:41:07.979Z,1005.78
2018-07-20T01:42:08.021Z,1005.78
2018-07-20T01:43:07.984Z,1005.81
2018-07-20T01:44:08.004Z,1005.75
2018-07-20T01:45:07.921Z,1005.75
2018-07-20T01:46:07.871Z,1005.78
2018-07-20T01:47:07.927Z,1005.80
2018-07-20T01:48:08.009Z,1005.75
2018-07-20T01:49:07.895Z,1005.77
2018-07-20T01:50:07.969Z,1005.75
2018-07-20T01:51:07.935Z,1005.76
2018-07-20T01:52:07.969Z,1005.76
2018-07-20T01:53:07.991Z,1005.74
2018-07-20T01:54:07.900Z,1005.71
2018-07-20T01:55:07.970Z,1005.74
2018-07-20T01:56:07.906Z,1005.76
2018-07-20T01:57:07.908Z,1005.76
2018-07-20T01:58:08.033Z,1005.76
2018-07-20T01:59:07.924Z,1005.73
2018-07-20T02:00:08.015Z,1005.73
2018-07-20T02:01:07.978Z,1005.73
2018-07-20T02:02:07.978Z,1005.72
2018-07-20T02:03:07.918Z,1005.69
2018-07-20T02:04:07.918Z,1005.75
2018-07-20T02:05:07.979Z,1005.69
2018-07-20T02:06:07.916Z,1005.71
2018-07-20T02:07:07.980Z,1005.74
2018-07-20T02:08:07.983Z,1005.75
2018-07-20T02:09:07.914Z,1005.79
2018-07-20T02:10:07.980Z,1005.74
2018-07-20T02:11:07.982Z,1005.74
2018-07-20T02:12:07.918Z,1005.71
2018-07-20T02:13:07.936Z,1005.75
2018-07-20T02:14:08.018Z,1005.71
2018-07-20T02:15:07.937Z,1005.72
2018-07-20T02:16:07.978Z,1005.72
2018-07-20T02:17:08.015Z,1005.71
2018-07-20T02:18:08.029Z,1005.74
2018-07-20T02:19:07.928Z,1005.68
2018-07-20T02:20:07.955Z,1005.68
2018-07-20T02:21:07.893Z,1005.71
2018-07-20T02:22:07.963Z,1005.68
2018-07-20T02:23:07.955Z,1005.72
2018-07-20T02:24:08.017Z,1005.71
2018-07-20T02:25:07.909Z,1005.74
2018-07-20T02:26:07.917Z,1005.75
2018-07-20T02:27:07.894Z,1005.73
2018-07-20T02:28:07.970Z,1005.75
2018-07-20T02:29:07.900Z,1005.71
2018-07-20T02:30:08.046Z,1005.72
2018-07-20T02:31:08.025Z,1005.73
2018-07-20T02:32:07.956Z,1005.71
2018-07-20T02:33:08.000Z,1005.75
2018-07-20T02:34:07.974Z,1005.71
2018-07-20T02:35:07.956Z,1005.70
2018-07-20T02:36:08.001Z,1005.70
2018-07-20T02:37:07.944Z,1005.71
2018-07-20T02:38:07.995Z,1005.68
2018-07-20T02:39:08.045Z,1005.68
2018-07-20T02:40:08.039Z,1005.62
2018-07-20T02:41:07.974Z,1005.63
2018-07-20T02:42:08.078Z,1005.66
2018-07-20T02:43:08.013Z,1005.62
2018-07-20T02:44:08.006Z,1005.65
2018-07-20T02:45:08.045Z,1005.67
2018-07-20T02:46:08.009Z,1005.63
2018-07-20T02:47:07.983Z,1005.64
2018-07-20T02:48:08.021Z,1005.63
2018-07-20T02:49:07.950Z,1005.64
2018-07-20T02:50:07.991Z,1005.64
2018-07-20T02:51:07.973Z,1005.59
2018-07-20T02:52:08.015Z,1005.60
2018-07-20T02:53:08.015Z,1005.60
2018-07-20T02:54:08.050Z,1005.60
2018-07-20T02:55:08.057Z,1005.61
2018-07-20T02:56:08.013Z,1005.56
2018-07-20T02:57:07.972Z,1005.58
2018-07-20T02:58:07.918Z,1005.57
2018-07-20T02:59:16.569Z,1005.56
2018-07-20T03:00:07.984Z,1005.60
2018-07-20T03:01:07.937Z,1005.59
2018-07-20T03:02:07.989Z,1005.57
2018-07-20T03:03:07.944Z,1005.51
2018-07-20T03:04:07.996Z,1005.53
2018-07-20T03:05:07.975Z,1005.59
2018-07-20T03:06:08.056Z,1005.56
2018-07-20T03:07:08.027Z,1005.57
2018-07-20T03:08:07.965Z,1005.54
2018-07-20T03:09:08.013Z,1005.53
2018-07-20T03:10:07.933Z,1005.52
2018-07-20T03:11:07.997Z,1005.52
2018-07-20T03:12:07.931Z,1005.53
2018-07-20T03:13:08.052Z,1005.57
2018-07-20T03:14:07.959Z,1005.51
2018-07-20T03:15:08.029Z,1005.49
2018-07-20T03:16:07.961Z,1005.53
2018-07-20T03:17:08.031Z,1005.50
2018-07-20T03:18:07.960Z,1005.52
2018-07-20T03:19:08.044Z,1005.54
2018-07-20T03:20:08.033Z,1005.51
2018-07-20T03:21:08.017Z,1005.52
2018-07-20T03:22:07.971Z,1005.53
2018-07-20T03:23:08.032Z,1005.49
2018-07-20T03:24:08.011Z,1005.52
2018-07-20T03:25:07.936Z,1005.49
2018-07-20T03:26:08.002Z,1005.47
2018-07-20T03:27:07.954Z,1005.52
2018-07-20T03:28:08.041Z,1005.49
2018-07-20T03:29:08.002Z,1005.55
2018-07-20T03:30:08.008Z,1005.56
2018-07-20T03:31:08.073Z,1005.56
2018-07-20T03:32:07.943Z,1005.52
2018-07-20T03:33:08.000Z,1005.52
2018-07-20T03:34:08.042Z,1005.54
2018-07-20T03:35:07.974Z,1005.56
2018-07-20T03:36:08.062Z,1005.54
2018-07-20T03:37:07.989Z,1005.56
2018-07-20T03:38:08.041Z,1005.51
2018-07-20T03:39:08.042Z,1005.55
2018-07-20T03:40:08.046Z,1005.52
2018-07-20T03:41:07.976Z,1005.53
2018-07-20T03:42:08.043Z,1005.52
2018-07-20T03:43:07.981Z,1005.51
2018-07-20T03:44:08.063Z,1005.52
2018-07-20T03:45:08.077Z,1005.54
2018-07-20T03:46:08.072Z,1005.52
2018-07-20T03:47:08.042Z,1005.50
2018-07-20T03:48:07.951Z,1005.48
2018-07-20T03:49:08.150Z,1005.47
2018-07-20T03:50:08.015Z,1005.44
2018-07-20T03:51:08.047Z,1005.45
2018-07-20T03:52:08.051Z,1005.42
2018-07-20T03:53:08.050Z,1005.43
2018-07-20T03:54:07.975Z,1005.40
2018-07-20T03:55:08.053Z,1005.39
2018-07-20T03:56:07.949Z,1005.41
2018-07-20T03:57:08.085Z,1005.41
2018-07-20T03:58:08.092Z,1005.45
2018-07-20T03:59:08.019Z,1005.39
2018-07-20T04:00:08.076Z,1005.44
2018-07-20T04:01:08.071Z,1005.41
2018-07-20T04:02:08.034Z,1005.41
2018-07-20T04:03:08.101Z,1005.40
2018-07-20T04:04:08.066Z,1005.41
2018-07-20T04:05:08.081Z,1005.41
2018-07-20T04:06:08.060Z,1005.39
2018-07-20T04:07:08.074Z,1005.41
2018-07-20T04:08:07.969Z,1005.41
2018-07-20T04:09:08.042Z,1005.41
2018-07-20T04:10:08.035Z,1005.43
2018-07-20T04:11:08.006Z,1005.42
2018-07-20T04:12:08.084Z,1005.39
2018-07-20T04:13:07.970Z,1005.38
2018-07-20T04:14:08.024Z,1005.42
2018-07-20T04:15:08.049Z,1005.38
2018-07-20T04:16:08.054Z,1005.39
2018-07-20T04:17:08.004Z,1005.41
2018-07-20T04:18:07.974Z,1005.34
2018-07-20T04:19:07.943Z,1005.36
2018-07-20T04:20:08.056Z,1005.37
2018-07-20T04:21:08.062Z,1005.38
2018-07-20T04:22:08.069Z,1005.38
2018-07-20T04:23:07.940Z,1005.35
2018-07-20T04:24:08.008Z,1005.39
2018-07-20T04:25:08.071Z,1005.39
2018-07-20T04:26:08.117Z,1005.38
2018-07-20T04:27:08.103Z,1005.40
2018-07-20T04:28:08.096Z,1005.41
2018-07-20T04:29:08.076Z,1005.38
2018-07-20T04:30:08.055Z,1005.41
2018-07-20T04:31:07.972Z,1005.36
2018-07-20T04:32:08.078Z,1005.37
2018-07-20T04:33:08.048Z,1005.40
2018-07-20T04:34:08.042Z,1005.39
2018-07-20T04:35:08.080Z,1005.38
2018-07-20T04:36:08.014Z,1005.37
2018-07-20T04:37:08.014Z,1005.35
2018-07-20T04:38:08.084Z,1005.36
2018-07-20T04:39:08.021Z,1005.35
2018-07-20T04:40:08.015Z,1005.30
2018-07-20T04:41:08.082Z,1005.33
2018-07-20T04:42:08.081Z,1005.33
2018-07-20T04:43:08.022Z,1005.32
2018-07-20T04:44:08.017Z,1005.36
2018-07-20T04:45:08.046Z,1005.32
2018-07-20T04:46:08.083Z,1005.32
2018-07-20T04:47:08.086Z,1005.32
2018-07-20T04:48:08.047Z,1005.25
2018-07-20T04:49:08.070Z,1005.29
2018-07-20T04:50:08.052Z,1005.29
2018-07-20T04:51:08.109Z,1005.24
2018-07-20T04:52:08.153Z,1005.23
2018-07-20T04:53:07.994Z,1005.25
2018-07-20T04:54:08.117Z,1005.22
2018-07-20T04:55:07.988Z,1005.23
2018-07-20T04:56:08.000Z,1005.22
2018-07-20T04:57:07.992Z,1005.22
2018-07-20T04:58:08.017Z,1005.21
2018-07-20T04:59:07.956Z,1005.24
2018-07-20T05:00:08.040Z,1005.27
2018-07-20T05:01:08.046Z,1005.23
2018-07-20T05:02:07.951Z,1005.23
2018-07-20T05:03:08.047Z,1005.21
2018-07-20T05:04:08.050Z,1005.22
2018-07-20T05:05:08.060Z,1005.25
2018-07-20T05:06:08.037Z,1005.22
2018-07-20T05:07:08.104Z,1005.23
2018-07-20T05:08:08.058Z,1005.23
2018-07-20T05:09:08.099Z,1005.20
2018-07-20T05:10:08.036Z,1005.16
2018-07-20T05:11:08.103Z,1005.19
2018-07-20T05:12:08.040Z,1005.19
2018-07-20T05:13:08.041Z,1005.17
2018-07-20T05:14:08.041Z,1005.20
2018-07-20T05:15:08.042Z,1005.16
2018-07-20T05:16:08.105Z,1005.15
2018-07-20T05:17:08.106Z,1005.16
2018-07-20T05:18:08.107Z,1005.15
2018-07-20T05:19:08.110Z,1005.16
2018-07-20T05:20:08.040Z,1005.15
2018-07-20T05:21:08.108Z,1005.13
2018-07-20T05:22:08.049Z,1005.13
2018-07-20T05:23:08.045Z,1005.12
2018-07-20T05:24:08.169Z,1005.10
2018-07-20T05:25:08.129Z,1005.08
2018-07-20T05:26:08.038Z,1005.07
2018-07-20T05:27:08.075Z,1005.05
2018-07-20T05:28:08.027Z,1005.06
2018-07-20T05:29:08.056Z,1005.07
2018-07-20T05:30:08.090Z,1005.10
2018-07-20T05:31:08.077Z,1005.07
2018-07-20T05:32:08.143Z,1005.07
2018-07-20T05:33:08.091Z,1005.04
2018-07-20T05:34:08.097Z,1005.04
2018-07-20T05:35:08.006Z,1005.02
2018-07-20T05:36:08.044Z,1004.98
2018-07-20T05:37:08.116Z,1005.04
2018-07-20T05:38:08.091Z,1005.03
2018-07-20T05:39:08.113Z,1004.98
2018-07-20T05:40:07.995Z,1005.02
2018-07-20T05:41:08.112Z,1005.00
2018-07-20T05:42:08.115Z,1005.01
2018-07-20T05:43:07.993Z,1005.01
2018-07-20T05:44:08.057Z,1004.96
2018-07-20T05:45:08.140Z,1004.95
2018-07-20T05:46:08.125Z,1004.95
2018-07-20T05:47:08.061Z,1004.97
2018-07-20T05:48:08.128Z,1004.97
2018-07-20T05:49:08.063Z,1004.94
2018-07-20T05:50:08.132Z,1004.95
2018-07-20T05:51:08.063Z,1004.93
2018-07-20T05:52:08.130Z,1004.92
2018-07-20T05:53:08.065Z,1004.90
2018-07-20T05:54:08.067Z,1004.89
2018-07-20T05:55:08.172Z,1004.87
2018-07-20T05:56:08.131Z,1004.91
2018-07-20T05:57:08.067Z,1004.91
2018-07-20T05:58:08.136Z,1004.85
2018-07-20T05:59:08.134Z,1004.81
2018-07-20T06:00:08.136Z,1004.83
2018-07-20T06:01:08.070Z,1004.88
2018-07-20T06:02:08.140Z,1004.82
2018-07-20T06:03:08.071Z,1004.82
2018-07-20T06:04:08.219Z,1004.82
2018-07-20T06:05:08.136Z,1004.78
2018-07-20T06:06:08.072Z,1004.78
2018-07-20T06:07:08.111Z,1004.78
2018-07-20T06:08:08.126Z,1004.79
2018-07-20T06:09:08.112Z,1004.75
2018-07-20T06:10:08.120Z,1004.73
2018-07-20T06:11:08.117Z,1004.73
2018-07-20T06:12:08.105Z,1004.76
2018-07-20T06:13:08.118Z,1004.74
2018-07-20T06:14:08.208Z,1004.76
2018-07-20T06:15:08.099Z,1004.75
2018-07-20T06:16:08.130Z,1004.75
2018-07-20T06:17:08.132Z,1004.69
2018-07-20T06:18:08.131Z,1004.72
2018-07-20T06:19:08.092Z,1004.73
2018-07-20T06:20:08.072Z,1004.72
2018-07-20T06:21:08.048Z,1004.72
2018-07-20T06:22:08.103Z,1004.68
2018-07-20T06:23:08.077Z,1004.68
2018-07-20T06:24:08.092Z,1004.68
2018-07-20T06:25:08.115Z,1004.69
2018-07-20T06:26:08.177Z,1004.70
2018-07-20T06:27:08.113Z,1004.67
2018-07-20T06:28:08.092Z,1004.69
2018-07-20T06:29:08.117Z,1004.71
2018-07-20T06:30:08.117Z,1004.71
2018-07-20T06:31:08.279Z,1004.72
2018-07-20T06:32:08.140Z,1004.71
2018-07-20T06:33:08.135Z,1004.72
2018-07-20T06:34:08.062Z,1004.67
2018-07-20T06:35:08.069Z,1004.67
2018-07-20T06:36:08.159Z,1004.65
2018-07-20T06:37:08.159Z,1004.67
2018-07-20T06:38:08.122Z,1004.65
2018-07-20T06:39:08.177Z,1004.68
2018-07-20T06:40:08.124Z,1004.69
2018-07-20T06:41:08.130Z,1004.68
2018-07-20T06:42:08.147Z,1004.72
2018-07-20T06:43:08.300Z,1004.71
2018-07-20T06:44:08.201Z,1004.72
2018-07-20T06:45:08.200Z,1004.70
2018-07-20T06:46:08.071Z,1004.66
2018-07-20T06:47:08.263Z,1004.68
2018-07-20T06:48:08.151Z,1004.70
2018-07-20T06:49:08.175Z,1004.70
2018-07-20T06:50:08.111Z,1004.69
2018-07-20T06:51:08.194Z,1004.72
2018-07-20T06:52:08.204Z,1004.66
2018-07-20T06:53:08.131Z,1004.70
2018-07-20T06:54:08.207Z,1004.70
2018-07-20T06:55:08.154Z,1004.69
2018-07-20T06:56:08.082Z,1004.67
2018-07-20T06:57:08.133Z,1004.68
2018-07-20T06:58:08.205Z,1004.68
2018-07-20T06:59:08.197Z,1004.66
2018-07-20T07:00:08.131Z,1004.69
2018-07-20T07:01:08.087Z,1004.67
2018-07-20T07:02:08.138Z,1004.66
2018-07-20T07:03:08.100Z,1004.64
2018-07-20T07:04:08.140Z,1004.67
2018-07-20T07:05:08.097Z,1004.69
2018-07-20T07:06:08.140Z,1004.65
2018-07-20T07:07:08.184Z,1004.66
2018-07-20T07:08:08.209Z,1004.67
2018-07-20T07:09:08.208Z,1004.67
2018-07-20T07:10:08.144Z,1004.66
2018-07-20T07:11:08.218Z,1004.64
2018-07-20T07:12:08.187Z,1004.64
2018-07-20T07:13:08.208Z,1004.63
2018-07-20T07:14:08.224Z,1004.65
2018-07-20T07:15:08.179Z,1004.67
2018-07-20T07:16:08.207Z,1004.65
2018-07-20T07:17:08.217Z,1004.64
2018-07-20T07:18:08.205Z,1004.62
2018-07-20T07:19:08.123Z,1004.60
2018-07-20T07:20:08.215Z,1004.62
2018-07-20T07:21:08.095Z,1004.60
2018-07-20T07:22:08.214Z,1004.59
2018-07-20T07:23:08.169Z,1004.58
2018-07-20T07:24:08.169Z,1004.61
2018-07-20T07:25:08.215Z,1004.57
2018-07-20T07:26:08.219Z,1004.60
2018-07-20T07:27:08.169Z,1004.60
2018-07-20T07:28:08.165Z,1004.57
2018-07-20T07:29:08.207Z,1004.56
2018-07-20T07:30:08.148Z,1004.56
2018-07-20T07:31:08.198Z,1004.60
2018-07-20T07:32:08.123Z,1004.57
2018-07-20T07:33:08.178Z,1004.59
2018-07-20T07:34:08.195Z,1004.50
2018-07-20T07:35:08.077Z,1004.53
2018-07-20T07:36:08.194Z,1004.53
2018-07-20T07:37:08.073Z,1004.51
2018-07-20T07:38:08.196Z,1004.48
2018-07-20T07:39:08.154Z,1004.46
2018-07-20T07:40:08.156Z,1004.45
2018-07-20T07:41:08.138Z,1004.45
2018-07-20T07:42:08.107Z,1004.50
2018-07-20T07:43:08.156Z,1004.45
2018-07-20T07:44:08.107Z,1004.48
2018-07-20T07:45:08.242Z,1004.44
2018-07-20T07:46:08.214Z,1004.43
2018-07-20T07:47:08.244Z,1004.43
2018-07-20T07:48:08.184Z,1004.44
2018-07-20T07:49:08.208Z,1004.45
2018-07-20T07:50:08.212Z,1004.40
2018-07-20T07:51:08.120Z,1004.43
2018-07-20T07:52:08.227Z,1004.38
2018-07-20T07:53:08.235Z,1004.41
2018-07-20T07:54:08.209Z,1004.35
2018-07-20T07:55:08.215Z,1004.38
2018-07-20T07:56:08.147Z,1004.34
2018-07-20T07:57:08.150Z,1004.37
2018-07-20T07:58:08.214Z,1004.37
2018-07-20T07:59:08.172Z,1004.33
2018-07-20T08:00:08.215Z,1004.33
2018-07-20T08:01:08.153Z,1004.35
2018-07-20T08:02:08.152Z,1004.36
2018-07-20T08:03:08.168Z,1004.34
2018-07-20T08:04:08.219Z,1004.32
2018-07-20T08:05:08.241Z,1004.35
2018-07-20T08:06:08.239Z,1004.36
2018-07-20T08:07:08.244Z,1004.31
2018-07-20T08:08:08.268Z,1004.30
2018-07-20T08:09:08.134Z,1004.28
2018-07-20T08:10:08.428Z,1004.25
2018-07-20T08:11:08.125Z,1004.29
2018-07-20T08:12:08.221Z,1004.29
2018-07-20T08:13:08.260Z,1004.28
2018-07-20T08:14:08.238Z,1004.34
2018-07-20T08:15:08.204Z,1004.29
2018-07-20T08:16:08.270Z,1004.27
2018-07-20T08:17:08.254Z,1004.28
2018-07-20T08:18:08.215Z,1004.28
2018-07-20T08:19:08.266Z,1004.28
2018-07-20T08:20:08.154Z,1004.22
2018-07-20T08:21:08.130Z,1004.24
2018-07-20T08:22:08.237Z,1004.23
2018-07-20T08:23:08.210Z,1004.24
2018-07-20T08:24:08.255Z,1004.23
2018-07-20T08:25:08.174Z,1004.22
2018-07-20T08:26:08.133Z,1004.23
2018-07-20T08:27:08.196Z,1004.24
2018-07-20T08:28:08.154Z,1004.23
2018-07-20T08:29:08.236Z,1004.23
2018-07-20T08:30:08.140Z,1004.20
2018-07-20T08:31:08.274Z,1004.22
2018-07-20T08:32:08.217Z,1004.15
2018-07-20T08:33:08.266Z,1004.16
2018-07-20T08:34:08.236Z,1004.14
2018-07-20T08:35:08.241Z,1004.12
2018-07-20T08:36:08.242Z,1004.14
2018-07-20T08:37:08.219Z,1004.13
2018-07-20T08:38:08.216Z,1004.13
2018-07-20T08:39:08.222Z,1004.14
2018-07-20T08:40:08.142Z,1004.07
2018-07-20T08:41:08.255Z,1004.10
2018-07-20T08:42:08.265Z,1004.12
2018-07-20T08:43:08.271Z,1004.09
2018-07-20T08:44:08.167Z,1004.03
2018-07-20T08:45:08.278Z,1003.99
2018-07-20T08:46:08.244Z,1004.03
2018-07-20T08:47:08.230Z,1004.01
2018-07-20T08:48:08.229Z,1004.02
2018-07-20T08:49:08.249Z,1003.98
2018-07-20T08:50:08.281Z,1004.01
2018-07-20T08:51:08.213Z,1003.99
2018-07-20T08:52:08.152Z,1003.99
2018-07-20T08:53:08.281Z,1003.97
2018-07-20T08:54:08.340Z,1003.95
2018-07-20T08:55:08.255Z,1003.95
2018-07-20T08:56:08.231Z,1003.94
2018-07-20T08:57:08.216Z,1003.96
2018-07-20T08:58:08.286Z,1003.95
2018-07-20T08:59:08.392Z,1003.95
2018-07-20T09:00:08.228Z,1003.89
2018-07-20T09:01:08.233Z,1003.92
2018-07-20T09:02:08.166Z,1003.92
2018-07-20T09:03:08.260Z,1003.94
2018-07-20T09:04:08.289Z,1003.90
2018-07-20T09:05:08.261Z,1003.90
2018-07-20T09:06:08.194Z,1003.93
2018-07-20T09:07:08.227Z,1003.89
2018-07-20T09:08:08.310Z,1003.88
2018-07-20T09:09:08.234Z,1003.87
2018-07-20T09:10:08.287Z,1003.89
2018-07-20T09:11:08.309Z,1003.88
2018-07-20T09:12:08.286Z,1003.87
2018-07-20T09:13:08.248Z,1003.88
2018-07-20T09:14:08.224Z,1003.90
2018-07-20T09:15:08.296Z,1003.85
2018-07-20T09:16:08.224Z,1003.81
2018-07-20T09:17:08.271Z,1003.83
2018-07-20T09:18:08.174Z,1003.84
2018-07-20T09:19:08.270Z,1003.82
2018-07-20T09:20:08.240Z,1003.80
2018-07-20T09:21:08.308Z,1003.80
2018-07-20T09:22:08.273Z,1003.81
2018-07-20T09:23:08.246Z,1003.79
2018-07-20T09:24:08.296Z,1003.77
2018-07-20T09:25:08.179Z,1003.74
2018-07-20T09:26:08.237Z,1003.75
2018-07-20T09:27:08.245Z,1003.74
2018-07-20T09:28:08.248Z,1003.77
2018-07-20T09:29:08.296Z,1003.73
2018-07-20T09:30:08.240Z,1003.72
2018-07-20T09:31:08.320Z,1003.72
2018-07-20T09:32:08.277Z,1003.70
2018-07-20T09:33:08.318Z,1003.74
2018-07-20T09:34:08.368Z,1003.71
2018-07-20T09:35:08.283Z,1003.75
2018-07-20T09:36:08.326Z,1003.75
2018-07-20T09:37:08.313Z,1003.71
2018-07-20T09:38:08.306Z,1003.72
2018-07-20T09:39:08.288Z,1003.74
2018-07-20T09:40:08.292Z,1003.74
2018-07-20T09:41:08.322Z,1003.75
2018-07-20T09:42:08.244Z,1003.75
2018-07-20T09:43:08.312Z,1003.75
2018-07-20T09:44:08.286Z,1003.74
2018-07-20T09:45:08.290Z,1003.75
2018-07-20T09:46:08.196Z,1003.74
2018-07-20T09:47:08.221Z,1003.73
2018-07-20T09:48:08.275Z,1003.70
2018-07-20T09:49:08.295Z,1003.67
2018-07-20T09:50:08.159Z,1003.65
2018-07-20T09:51:08.244Z,1003.64
2018-07-20T09:52:08.248Z,1003.61
2018-07-20T09:53:08.250Z,1003.61
2018-07-20T09:54:08.283Z,1003.62
2018-07-20T09:55:08.234Z,1003.62
2018-07-20T09:56:08.286Z,1003.61
2018-07-20T09:57:08.220Z,1003.53
2018-07-20T09:58:08.218Z,1003.57
2018-07-20T09:59:08.248Z,1003.59
2018-07-20T10:00:08.291Z,1003.57
2018-07-20T10:01:08.205Z,1003.54
2018-07-20T10:02:08.285Z,1003.53
2018-07-20T10:03:08.169Z,1003.53
2018-07-20T10:04:08.255Z,1003.52
2018-07-20T10:05:08.292Z,1003.52
2018-07-20T10:06:08.305Z,1003.50
2018-07-20T10:07:08.240Z,1003.48
2018-07-20T10:08:08.371Z,1003.49
2018-07-20T10:09:08.315Z,1003.46
2018-07-20T10:10:08.242Z,1003.48
2018-07-20T10:11:08.307Z,1003.42
2018-07-20T10:12:08.345Z,1003.40
2018-07-20T10:13:08.244Z,1003.39
2018-07-20T10:14:08.244Z,1003.39
2018-07-20T10:15:08.403Z,1003.40
2018-07-20T10:16:08.313Z,1003.36
2018-07-20T10:17:08.242Z,1003.36
2018-07-20T10:18:08.302Z,1003.31
2018-07-20T10:19:08.351Z,1003.32
2018-07-20T10:20:08.305Z,1003.28
2018-07-20T10:21:08.247Z,1003.31
2018-07-20T10:22:08.302Z,1003.31
2018-07-20T10:23:08.261Z,1003.30
2018-07-20T10:24:08.252Z,1003.25
2018-07-20T10:25:08.234Z,1003.22
2018-07-20T10:26:08.251Z,1003.26
2018-07-20T10:28:08.254Z,1003.23
2018-07-20T10:29:08.257Z,1003.28
2018-07-20T10:30:08.317Z,1003.25
2018-07-20T10:31:08.253Z,1003.21
2018-07-20T10:32:08.321Z,1003.21
2018-07-20T10:33:08.255Z,1003.19
2018-07-20T10:34:08.254Z,1003.26
2018-07-20T10:35:08.289Z,1003.22
2018-07-20T10:36:08.344Z,1003.23
2018-07-20T10:37:08.325Z,1003.20
2018-07-20T10:38:08.353Z,1003.20
2018-07-20T10:39:08.227Z,1003.20
2018-07-20T10:40:08.230Z,1003.23
2018-07-20T10:41:08.296Z,1003.19
2018-07-20T10:42:08.349Z,1003.18
2018-07-20T10:43:08.423Z,1003.19
2018-07-20T10:44:08.325Z,1003.20
2018-07-20T10:45:08.296Z,1003.18
2018-07-20T10:46:08.268Z,1003.16
2018-07-20T10:47:08.333Z,1003.17
2018-07-20T10:48:08.337Z,1003.20
2018-07-20T10:49:08.332Z,1003.19
2018-07-20T10:50:08.460Z,1003.18
2018-07-20T10:51:08.336Z,1003.16
2018-07-20T10:52:08.436Z,1003.16
2018-07-20T10:53:08.296Z,1003.15
2018-07-20T10:54:08.303Z,1003.11
2018-07-20T10:55:08.353Z,1003.15
2018-07-20T10:56:08.303Z,1003.10
2018-07-20T10:57:08.302Z,1003.10
2018-07-20T10:58:08.367Z,1003.11
2018-07-20T10:59:08.359Z,1003.11
2018-07-20T11:00:08.304Z,1003.11
2018-07-20T11:01:08.246Z,1003.10
2018-07-20T11:02:08.314Z,1003.05
2018-07-20T11:03:08.371Z,1003.08
2018-07-20T11:04:08.378Z,1003.04
2018-07-20T11:05:08.345Z,1003.02
2018-07-20T11:06:08.277Z,1003.00
2018-07-20T11:07:08.346Z,1002.96
2018-07-20T11:08:08.346Z,1003.01
2018-07-20T11:09:08.344Z,1003.01
2018-07-20T11:10:08.281Z,1003.07
2018-07-20T11:11:08.345Z,1003.03
2018-07-20T11:12:08.283Z,1003.02
2018-07-20T11:13:08.284Z,1003.00
2018-07-20T11:14:08.282Z,1003.02
2018-07-20T11:15:08.352Z,1002.97
2018-07-20T11:16:08.349Z,1003.03
2018-07-20T11:17:08.308Z,1003.01
2018-07-20T11:18:08.305Z,1003.01
2018-07-20T11:19:08.373Z,1002.99
2018-07-20T11:20:08.391Z,1002.99
2018-07-20T11:21:08.376Z,1002.94
2018-07-20T11:22:08.322Z,1002.97
2018-07-20T11:23:08.382Z,1002.90
2018-07-20T11:24:08.370Z,1002.93
2018-07-20T11:25:08.389Z,1002.88
2018-07-20T11:26:08.349Z,1002.90
2018-07-20T11:27:08.226Z,1002.92
2018-07-20T11:28:08.326Z,1002.87
2018-07-20T11:29:08.353Z,1002.88
2018-07-20T11:30:08.342Z,1002.84
2018-07-20T11:31:08.354Z,1002.84
2018-07-20T11:32:08.263Z,1002.89
2018-07-20T11:33:08.281Z,1002.83
2018-07-20T11:34:08.350Z,1002.85
2018-07-20T11:35:08.297Z,1002.85
2018-07-20T11:36:08.280Z,1002.89
2018-07-20T11:37:08.331Z,1002.87
2018-07-20T11:38:08.402Z,1002.88
2018-07-20T11:39:08.334Z,1002.90
2018-07-20T11:40:08.384Z,1002.84
2018-07-20T11:41:08.406Z,1002.86
2018-07-20T11:42:08.343Z,1002.84
2018-07-20T11:43:08.269Z,1002.86
2018-07-20T11:44:08.365Z,1002.85
2018-07-20T11:45:08.279Z,1002.79
2018-07-20T11:46:08.351Z,1002.85
2018-07-20T11:47:08.391Z,1002.80
2018-07-20T11:48:08.394Z,1002.78
2018-07-20T11:49:08.403Z,1002.78
2018-07-20T11:50:08.401Z,1002.77
2018-07-20T11:51:08.405Z,1002.76
2018-07-20T11:52:08.281Z,1002.78
2018-07-20T11:53:08.334Z,1002.70
2018-07-20T11:54:08.348Z,1002.74
2018-07-20T11:55:08.379Z,1002.75
2018-07-20T11:56:08.439Z,1002.71
2018-07-20T11:57:08.282Z,1002.68
2018-07-20T11:58:08.407Z,1002.68
2018-07-20T11:59:08.279Z,1002.68
2018-07-20T12:00:08.411Z,1002.64
2018-07-20T12:01:08.424Z,1002.67
2018-07-20T12:02:08.401Z,1002.60
2018-07-20T12:03:08.395Z,1002.59
2018-07-20T12:04:08.341Z,1002.59
2018-07-20T12:05:08.418Z,1002.57
2018-07-20T12:06:08.366Z,1002.56